Time;durP1;ratioP1;P1;durP2;ratioP2;P2;SDS_P1;SDS_P2;PMS_P1;PMS_P2;Temp;Humidity;BMP_temperature;BMP_pressure;BME280_temperature;BME280_humidity;BME280_pressure;Samples;Min_cycle;Max_cycle;Signal;HPM_P1;HPM_P2
2023/08/02 00:01:47;;;;;;;0.35;0.35;;;;;;;;;;5051105;28;20098;-68
2023/08/02 00:04:13;;;;;;;0.20;0.20;;;;;;;;;;5052674;28;20033;-68
2023/08/02 00:06:38;;;;;;;0.28;0.28;;;;;;;;;;5052448;28;20044;-68
2023/08/02 00:09:05;;;;;;;0.20;0.20;;;;;;;;;;5051658;28;20036;-68
2023/08/02 00:11:30;;;;;;;0.20;0.20;;;;;;;;;;5050966;28;20357;-67
2023/08/02 00:13:56;;;;;;;0.20;0.20;;;;;;;;;;5052526;28;20032;-67
2023/08/02 00:16:21;;;;;;;0.20;0.20;;;;;;;;;;5051646;28;20041;-67
2023/08/02 00:18:46;;;;;;;0.10;0.10;;;;;;;;;;5052385;28;20037;-67
2023/08/02 00:21:12;;;;;;;0.10;0.10;;;;;;;;;;5052180;28;20037;-67
2023/08/02 00:23:37;;;;;;;0.13;0.13;;;;;;;;;;5051287;28;20060;-68
2023/08/02 00:26:03;;;;;;;0.20;0.20;;;;;;;;;;5055966;28;20116;-67
2023/08/02 00:28:28;;;;;;;0.20;0.20;;;;;;;;;;5058966;28;20029;-68
2023/08/02 00:30:53;;;;;;;0.47;0.47;;;;;;;;;;5059707;28;20083;-68
2023/08/02 00:33:19;;;;;;;0.20;0.20;;;;;;;;;;5059624;28;20544;-68
2023/08/02 00:35:45;;;;;;;0.20;0.20;;;;;;;;;;5058830;28;20245;-68
2023/08/02 00:38:10;;;;;;;0.20;0.20;;;;;;;;;;5041305;28;20082;-68
2023/08/02 00:40:36;;;;;;;0.13;0.13;;;;;;;;;;5057939;28;20036;-68
2023/08/02 00:43:02;;;;;;;0.10;0.10;;;;;;;;;;5057729;28;20548;-68
2023/08/02 00:45:27;;;;;;;0.55;0.55;;;;;;;;;;5058841;28;20045;-67
2023/08/02 00:47:53;;;;;;;0.20;0.20;;;;;;;;;;5057884;28;20033;-67
2023/08/02 00:50:21;;;;;;;0.20;0.20;;;;;;;;;;5058662;28;20119;-67
2023/08/02 00:52:47;;;;;;;0.20;0.20;;;;;;;;;;5041610;28;20039;-68
2023/08/02 00:55:12;;;;;;;0.20;0.20;;;;;;;;;;5057571;28;20036;-68
2023/08/02 00:57:38;;;;;;;0.20;0.20;;;;;;;;;;5057564;28;20040;-67
2023/08/02 01:00:04;;;;;;;0.20;0.20;;;;;;;;;;5040794;28;20491;-68
2023/08/02 01:02:29;;;;;;;0.20;0.20;;;;;;;;;;5057183;28;20040;-68
2023/08/02 01:04:54;;;;;;;0.20;0.20;;;;;;;;;;5040682;28;20036;-69
2023/08/02 01:07:27;;;;;;;0.20;0.20;;;;;;;;;;5051126;28;20040;-68
2023/08/02 01:09:56;;;;;;;0.20;0.20;;;;;;;;;;5078441;28;20419;-68
2023/08/02 01:12:23;;;;;;;0.20;0.20;;;;;;;;;;5078126;28;20116;-68
2023/08/02 01:14:50;;;;;;;0.20;0.20;;;;;;;;;;5061086;28;20063;-67
2023/08/02 01:17:16;;;;;;;0.17;0.17;;;;;;;;;;5078560;28;20376;-67
2023/08/02 01:19:43;;;;;;;0.10;0.10;;;;;;;;;;5078404;28;20459;-68
2023/08/02 01:22:09;;;;;;;0.15;0.15;;;;;;;;;;5078067;28;20361;-68
2023/08/02 01:24:35;;;;;;;0.20;0.20;;;;;;;;;;5077147;28;20039;-67
2023/08/02 01:27:13;;;;;;;0.13;0.13;;;;;;;;;;5078449;28;20029;-67
2023/08/02 01:29:41;;;;;;;0.20;0.20;;;;;;;;;;5060329;28;20066;-68
2023/08/02 01:32:08;;;;;;;0.20;0.20;;;;;;;;;;5078171;28;20032;-67
2023/08/02 01:34:34;;;;;;;0.20;0.20;;;;;;;;;;5060439;28;20043;-67
2023/08/02 01:36:59;;;;;;;0.10;0.10;;;;;;;;;;5041876;28;20028;-67
2023/08/02 01:39:25;;;;;;;0.20;0.20;;;;;;;;;;5075265;28;20032;-67
2023/08/02 01:41:50;;;;;;;0.20;0.20;;;;;;;;;;5056945;28;20105;-68
2023/08/02 01:44:16;;;;;;;0.75;0.52;;;;;;;;;;5073695;28;20033;-69
2023/08/02 01:46:41;;;;;;;0.20;0.20;;;;;;;;;;5056928;28;20479;-67
2023/08/02 01:49:06;;;;;;;0.20;0.20;;;;;;;;;;5072777;28;20028;-67
2023/08/02 01:51:32;;;;;;;0.10;0.10;;;;;;;;;;5074922;28;20134;-67
2023/08/02 01:53:58;;;;;;;0.68;0.63;;;;;;;;;;5073574;28;20451;-67
2023/08/02 01:56:23;;;;;;;3.50;3.30;;;;;;;;;;5074766;28;20071;-68
2023/08/02 01:58:50;;;;;;;0.20;0.20;;;;;;;;;;5073396;28;20056;-67
2023/08/02 02:01:15;;;;;;;0.20;0.20;;;;;;;;;;5073211;28;20068;-67
2023/08/02 02:03:40;;;;;;;0.20;0.20;;;;;;;;;;5073032;28;20079;-67
2023/08/02 02:06:06;;;;;;;0.10;0.10;;;;;;;;;;5074574;28;20032;-67
2023/08/02 02:08:32;;;;;;;0.20;0.20;;;;;;;;;;5074632;28;20032;-67
2023/08/02 02:10:57;;;;;;;0.20;0.20;;;;;;;;;;5073242;28;20094;-67
2023/08/02 02:13:24;;;;;;;0.45;0.20;;;;;;;;;;5074473;28;20028;-67
2023/08/02 02:15:49;;;;;;;0.20;0.20;;;;;;;;;;5074410;28;20535;-68
2023/08/02 02:18:15;;;;;;;0.20;0.20;;;;;;;;;;5072898;28;20139;-67
2023/08/02 02:20:40;;;;;;;0.20;0.20;;;;;;;;;;5056492;28;20371;-68
2023/08/02 02:23:06;;;;;;;1.45;0.52;;;;;;;;;;5073250;28;20059;-68
2023/08/02 02:25:31;;;;;;;0.10;0.10;;;;;;;;;;5074227;28;20074;-68
2023/08/02 02:27:56;;;;;;;0.10;0.10;;;;;;;;;;5056326;28;20024;-68
2023/08/02 02:30:22;;;;;;;0.20;0.20;;;;;;;;;;5074146;28;20037;-67
2023/08/02 02:32:47;;;;;;;0.20;0.20;;;;;;;;;;5073970;28;20406;-67
2023/08/02 02:35:13;;;;;;;0.10;0.10;;;;;;;;;;5074044;28;20039;-67
2023/08/02 02:37:39;;;;;;;0.10;0.10;;;;;;;;;;5074193;28;20111;-67
2023/08/02 02:40:06;;;;;;;0.20;0.20;;;;;;;;;;5073932;28;20515;-68
2023/08/02 02:42:31;;;;;;;0.20;0.20;;;;;;;;;;5073980;28;20032;-68
2023/08/02 02:44:57;;;;;;;0.20;0.20;;;;;;;;;;5073037;28;20115;-68
2023/08/02 02:47:22;;;;;;;0.20;0.20;;;;;;;;;;5072479;28;20479;-67
2023/08/02 02:49:47;;;;;;;0.15;0.15;;;;;;;;;;5073805;28;20029;-67
2023/08/02 02:52:13;;;;;;;0.20;0.20;;;;;;;;;;5072790;28;20085;-68
2023/08/02 02:54:38;;;;;;;0.20;0.20;;;;;;;;;;5072450;28;20383;-68
2023/08/02 02:57:04;;;;;;;0.20;0.20;;;;;;;;;;5055919;28;20036;-68
2023/08/02 02:59:29;;;;;;;0.20;0.20;;;;;;;;;;5073694;28;20021;-68
2023/08/02 03:01:55;;;;;;;2.20;0.22;;;;;;;;;;5072433;28;20483;-68
2023/08/02 03:04:20;;;;;;;0.10;0.10;;;;;;;;;;5068280;28;20483;-67
2023/08/02 03:06:45;;;;;;;1.63;1.15;;;;;;;;;;5070025;28;20517;-67
2023/08/02 03:09:11;;;;;;;0.38;0.38;;;;;;;;;;5051717;28;20119;-69
2023/08/02 03:11:36;;;;;;;0.20;0.20;;;;;;;;;;5052158;28;20078;-68
2023/08/02 03:14:03;;;;;;;0.17;0.17;;;;;;;;;;5069559;28;20115;-68
2023/08/02 03:16:28;;;;;;;0.20;0.20;;;;;;;;;;5069817;28;20556;-67
2023/08/02 03:18:54;;;;;;;0.20;0.20;;;;;;;;;;5069148;28;20115;-67
2023/08/02 03:21:20;;;;;;;0.20;0.20;;;;;;;;;;5069355;28;20037;-68
2023/08/02 03:23:45;;;;;;;0.20;0.20;;;;;;;;;;5051386;28;20059;-68
2023/08/02 03:26:11;;;;;;;0.20;0.20;;;;;;;;;;5069477;28;20123;-68
2023/08/02 03:28:36;;;;;;;0.50;0.50;;;;;;;;;;5068630;28;20031;-68
2023/08/02 03:31:01;;;;;;;0.15;0.15;;;;;;;;;;5069032;28;20101;-69
2023/08/02 03:33:27;;;;;;;1.05;0.30;;;;;;;;;;5069061;28;20420;-68
2023/08/02 03:35:52;;;;;;;0.20;0.20;;;;;;;;;;5069396;28;20438;-67
2023/08/02 03:38:18;;;;;;;0.20;0.20;;;;;;;;;;5069196;28;20468;-68
2023/08/02 03:40:43;;;;;;;0.38;0.38;;;;;;;;;;5068185;28;20059;-69
2023/08/02 03:43:09;;;;;;;0.20;0.20;;;;;;;;;;5068419;28;20506;-69
2023/08/02 03:45:34;;;;;;;0.10;0.10;;;;;;;;;;5068683;28;20105;-67
2023/08/02 03:48:00;;;;;;;0.10;0.10;;;;;;;;;;5067977;28;20104;-67
2023/08/02 03:50:26;;;;;;;0.20;0.20;;;;;;;;;;5068863;28;20123;-67
2023/08/02 03:52:51;;;;;;;0.50;0.50;;;;;;;;;;5068756;28;20421;-67
2023/08/02 03:55:17;;;;;;;0.10;0.10;;;;;;;;;;5068468;28;20068;-68
2023/08/02 03:57:42;;;;;;;0.20;0.20;;;;;;;;;;5068919;28;20024;-67
2023/08/02 04:00:08;;;;;;;0.20;0.20;;;;;;;;;;5067030;28;20118;-67
2023/08/02 04:02:37;;;;;;;0.20;0.20;;;;;;;;;;5084622;28;20048;-67
2023/08/02 04:05:03;;;;;;;0.10;0.10;;;;;;;;;;5088387;28;20032;-67
2023/08/02 04:07:28;;;;;;;0.20;0.20;;;;;;;;;;5088752;28;20054;-67
2023/08/02 04:09:53;;;;;;;0.20;0.20;;;;;;;;;;5088950;28;20043;-68
2023/08/02 04:12:19;;;;;;;0.20;0.20;;;;;;;;;;5076191;28;20387;-67
2023/08/02 04:14:45;;;;;;;0.20;0.20;;;;;;;;;;5067227;28;20465;-67
2023/08/02 04:17:10;;;;;;;0.20;0.20;;;;;;;;;;5067966;28;20054;-68
2023/08/02 04:19:36;;;;;;;0.20;0.20;;;;;;;;;;5068298;28;20076;-66
2023/08/02 04:22:01;;;;;;;0.20;0.20;;;;;;;;;;5068653;28;20037;-68
2023/08/02 04:24:27;;;;;;;0.20;0.20;;;;;;;;;;5068274;28;20036;-67
2023/08/02 04:26:52;;;;;;;0.73;0.73;;;;;;;;;;5050672;28;20033;-66
2023/08/02 04:29:19;;;;;;;0.20;0.20;;;;;;;;;;5068197;28;20117;-66
2023/08/02 04:31:44;;;;;;;0.20;0.20;;;;;;;;;;5049592;28;20043;-66
2023/08/02 04:34:10;;;;;;;0.20;0.20;;;;;;;;;;5068258;28;20040;-66
2023/08/02 04:36:35;;;;;;;0.20;0.20;;;;;;;;;;5068079;28;20021;-67
2023/08/02 04:39:03;;;;;;;0.13;0.13;;;;;;;;;;5067766;28;20056;-68
2023/08/02 04:41:29;;;;;;;0.20;0.20;;;;;;;;;;5069092;28;20075;-66
2023/08/02 04:43:54;;;;;;;0.30;0.30;;;;;;;;;;5088386;28;20436;-67
2023/08/02 04:46:20;;;;;;;0.10;0.10;;;;;;;;;;5076900;28;20107;-66
2023/08/02 04:48:46;;;;;;;0.88;0.82;;;;;;;;;;5074928;28;20040;-66
2023/08/02 04:51:11;;;;;;;0.13;0.13;;;;;;;;;;5084120;28;20430;-66
2023/08/02 04:53:37;;;;;;;0.10;0.10;;;;;;;;;;5068333;28;20028;-66
2023/08/02 04:56:02;;;;;;;0.10;0.10;;;;;;;;;;5068074;28;20024;-66
2023/08/02 04:58:27;;;;;;;0.50;0.50;;;;;;;;;;5064984;28;20062;-66
2023/08/02 05:00:53;;;;;;;0.17;0.17;;;;;;;;;;5063263;28;20464;-67
2023/08/02 05:03:18;;;;;;;0.13;0.13;;;;;;;;;;5046397;28;20426;-67
2023/08/02 05:05:44;;;;;;;0.20;0.20;;;;;;;;;;5061453;28;20462;-67
2023/08/02 05:08:09;;;;;;;0.20;0.20;;;;;;;;;;5085282;28;20067;-67
2023/08/02 05:10:38;;;;;;;0.10;0.10;;;;;;;;;;5076904;28;20036;-67
2023/08/02 05:13:05;;;;;;;0.40;0.40;;;;;;;;;;5075645;28;20116;-67
2023/08/02 05:15:37;;;;;;;0.20;0.20;;;;;;;;;;5091929;28;20028;-68
2023/08/02 05:18:02;;;;;;;0.20;0.20;;;;;;;;;;5091011;28;20039;-68
2023/08/02 05:20:30;;;;;;;0.20;0.20;;;;;;;;;;5085472;28;20041;-66
2023/08/02 05:22:55;;;;;;;0.30;0.30;;;;;;;;;;5078163;28;20048;-66
2023/08/02 05:25:21;;;;;;;0.40;0.40;;;;;;;;;;5067711;28;20476;-67
2023/08/02 05:27:46;;;;;;;0.20;0.20;;;;;;;;;;5069037;28;20552;-67
2023/08/02 05:30:12;;;;;;;0.32;0.32;;;;;;;;;;5067520;28;20472;-67
2023/08/02 05:32:37;;;;;;;0.10;0.10;;;;;;;;;;5068791;28;20052;-67
2023/08/02 05:35:03;;;;;;;0.10;0.10;;;;;;;;;;5070731;28;20549;-68
2023/08/02 05:37:29;;;;;;;0.20;0.20;;;;;;;;;;5066350;28;20033;-67
2023/08/02 05:39:55;;;;;;;0.20;0.20;;;;;;;;;;5091713;28;20039;-70
2023/08/02 05:42:20;;;;;;;0.20;0.20;;;;;;;;;;5070648;28;20040;-70
2023/08/02 05:44:45;;;;;;;0.63;0.63;;;;;;;;;;5071042;28;20036;-67
2023/08/02 05:47:11;;;;;;;7.43;5.78;;;;;;;;;;5070866;28;20017;-67
2023/08/02 05:49:36;;;;;;;0.90;0.90;;;;;;;;;;5069946;28;20123;-67
2023/08/02 05:52:01;;;;;;;0.10;0.10;;;;;;;;;;5068814;28;20029;-70
2023/08/02 05:54:27;;;;;;;0.22;0.22;;;;;;;;;;5047610;28;20128;-67
2023/08/02 05:56:52;;;;;;;0.20;0.20;;;;;;;;;;5069011;28;20447;-68
2023/08/02 05:59:18;;;;;;;0.20;0.20;;;;;;;;;;5068658;28;20036;-67
2023/08/02 06:01:43;;;;;;;0.20;0.20;;;;;;;;;;5070247;28;20032;-67
2023/08/02 06:04:09;;;;;;;0.15;0.15;;;;;;;;;;5069656;28;20479;-70
2023/08/02 06:06:34;;;;;;;0.20;0.20;;;;;;;;;;5070422;28;20035;-67
2023/08/02 06:09:00;;;;;;;0.20;0.20;;;;;;;;;;5033177;28;20044;-69
2023/08/02 06:11:25;;;;;;;0.73;0.73;;;;;;;;;;5065945;28;20043;-70
2023/08/02 06:13:51;;;;;;;0.20;0.20;;;;;;;;;;5070372;28;20369;-70
2023/08/02 06:16:16;;;;;;;0.20;0.20;;;;;;;;;;5064468;28;20476;-70
2023/08/02 06:18:42;;;;;;;0.20;0.20;;;;;;;;;;5069651;28;20083;-69
2023/08/02 06:21:07;;;;;;;1.65;0.85;;;;;;;;;;5051301;28;20028;-68
2023/08/02 06:23:32;;;;;;;1.95;1.17;;;;;;;;;;5060947;28;20040;-69
2023/08/02 06:25:58;;;;;;;0.20;0.20;;;;;;;;;;5054436;28;20063;-67
2023/08/02 06:28:23;;;;;;;0.28;0.28;;;;;;;;;;5053499;28;20032;-68
2023/08/02 06:30:49;;;;;;;1.48;1.38;;;;;;;;;;5067106;28;20072;-69
2023/08/02 06:33:14;;;;;;;0.20;0.20;;;;;;;;;;5044439;28;20033;-68
2023/08/02 06:35:39;;;;;;;0.20;0.20;;;;;;;;;;5069246;28;20502;-68
2023/08/02 06:38:05;;;;;;;0.30;0.30;;;;;;;;;;5070073;28;20119;-68
2023/08/02 06:40:30;;;;;;;0.40;0.40;;;;;;;;;;5078863;28;20021;-69
2023/08/02 06:42:55;;;;;;;6.50;5.88;;;;;;;;;;5086979;28;20059;-68
2023/08/02 06:45:21;;;;;;;0.20;0.20;;;;;;;;;;5083692;28;20035;-69
2023/08/02 06:47:46;;;;;;;0.40;0.40;;;;;;;;;;5058968;28;20048;-70
2023/08/02 06:50:12;;;;;;;0.20;0.20;;;;;;;;;;5073158;28;20039;-68
2023/08/02 06:52:37;;;;;;;1.17;0.77;;;;;;;;;;5088233;28;20042;-70
2023/08/02 06:55:03;;;;;;;0.20;0.20;;;;;;;;;;5082143;28;20448;-70
2023/08/02 06:57:31;;;;;;;1.05;0.88;;;;;;;;;;5073311;28;20020;-70
2023/08/02 06:59:56;;;;;;;0.20;0.20;;;;;;;;;;5083539;28;20419;-70
2023/08/02 07:02:22;;;;;;;0.20;0.20;;;;;;;;;;5084457;28;20028;-70
2023/08/02 07:04:47;;;;;;;9.88;1.52;;;;;;;;;;5043151;28;20060;-70
2023/08/02 07:07:12;;;;;;;0.30;0.30;;;;;;;;;;5081036;28;20380;-69
2023/08/02 07:09:38;;;;;;;2.95;0.80;;;;;;;;;;5065054;28;20085;-70
2023/08/02 07:12:03;;;;;;;0.30;0.30;;;;;;;;;;5066327;28;20030;-70
2023/08/02 07:14:29;;;;;;;0.30;0.30;;;;;;;;;;5089956;28;20042;-69
2023/08/02 07:16:54;;;;;;;1.00;0.52;;;;;;;;;;5089602;28;20058;-70
2023/08/02 07:19:19;;;;;;;1.33;0.50;;;;;;;;;;5077021;28;20044;-70
2023/08/02 07:21:45;;;;;;;0.30;0.30;;;;;;;;;;5057628;28;20052;-71
2023/08/02 07:24:10;;;;;;;1.88;1.02;;;;;;;;;;5055158;28;20063;-70
2023/08/02 07:26:36;;;;;;;0.30;0.30;;;;;;;;;;5051779;28;20476;-70
2023/08/02 07:29:01;;;;;;;0.20;0.20;;;;;;;;;;5054013;28;20021;-70
2023/08/02 07:31:27;;;;;;;0.30;0.30;;;;;;;;;;5067961;28;20387;-67
2023/08/02 07:33:52;;;;;;;0.30;0.30;;;;;;;;;;5068617;28;20093;-69
2023/08/02 07:36:18;;;;;;;0.20;0.20;;;;;;;;;;5061820;28;20037;-69
2023/08/02 07:38:44;;;;;;;3.92;1.05;;;;;;;;;;5083433;28;20429;-67
2023/08/02 07:41:09;;;;;;;0.30;0.30;;;;;;;;;;5088957;28;20032;-67
2023/08/02 07:43:35;;;;;;;1.25;0.65;;;;;;;;;;5089615;28;20058;-69
2023/08/02 07:46:00;;;;;;;0.30;0.30;;;;;;;;;;5089337;28;20016;-68
2023/08/02 07:48:26;;;;;;;0.82;0.80;;;;;;;;;;5087461;28;20039;-68
2023/08/02 07:50:51;;;;;;;0.85;0.40;;;;;;;;;;5063984;28;20471;-68
2023/08/02 07:53:17;;;;;;;0.25;0.25;;;;;;;;;;5087093;28;20047;-67
2023/08/02 07:55:42;;;;;;;0.90;0.90;;;;;;;;;;5087323;28;20042;-68
2023/08/02 07:58:08;;;;;;;3.65;0.95;;;;;;;;;;5077530;28;20107;-68
2023/08/02 08:00:33;;;;;;;0.30;0.30;;;;;;;;;;5086844;28;20548;-68
2023/08/02 08:02:58;;;;;;;0.30;0.30;;;;;;;;;;5086981;28;20487;-69
2023/08/02 08:05:25;;;;;;;0.30;0.30;;;;;;;;;;5087103;28;20036;-68
2023/08/02 08:07:50;;;;;;;0.30;0.30;;;;;;;;;;5066992;28;20531;-68
2023/08/02 08:10:16;;;;;;;0.30;0.30;;;;;;;;;;5082804;28;20036;-68
2023/08/02 08:12:41;;;;;;;0.30;0.30;;;;;;;;;;5059582;28;20037;-68
2023/08/02 08:15:07;;;;;;;0.63;0.63;;;;;;;;;;5054483;28;20076;-69
2023/08/02 08:17:33;;;;;;;4.03;0.40;;;;;;;;;;5063305;28;20511;-68
2023/08/02 08:19:58;;;;;;;6.20;1.67;;;;;;;;;;5066626;28;20123;-69
2023/08/02 08:22:28;;;;;;;0.30;0.30;;;;;;;;;;5065899;28;20040;-68
2023/08/02 08:24:54;;;;;;;0.50;0.43;;;;;;;;;;5065110;28;20055;-68
2023/08/02 08:27:20;;;;;;;0.30;0.30;;;;;;;;;;5057045;28;20487;-68
2023/08/02 08:29:45;;;;;;;1.27;0.63;;;;;;;;;;5061396;28;20035;-71
2023/08/02 08:32:11;;;;;;;4.10;1.25;;;;;;;;;;5058773;28;20047;-68
2023/08/02 08:34:36;;;;;;;2.55;0.90;;;;;;;;;;5051745;28;20040;-69
2023/08/02 08:37:02;;;;;;;0.20;0.20;;;;;;;;;;5056123;28;20086;-69
2023/08/02 08:39:28;;;;;;;0.45;0.40;;;;;;;;;;5064004;28;20075;-68
2023/08/02 08:41:53;;;;;;;0.68;0.68;;;;;;;;;;5062183;28;20519;-68
2023/08/02 08:44:19;;;;;;;0.30;0.30;;;;;;;;;;5063846;28;20034;-68
2023/08/02 08:46:44;;;;;;;0.28;0.28;;;;;;;;;;5055675;28;20035;-68
2023/08/02 08:49:10;;;;;;;1.75;0.93;;;;;;;;;;5054757;28;20037;-69
2023/08/02 08:51:39;;;;;;;0.30;0.30;;;;;;;;;;5052689;28;20372;-68
2023/08/02 08:54:08;;;;;;;1.02;0.95;;;;;;;;;;5064634;28;20032;-68
2023/08/02 08:56:36;;;;;;;0.70;0.70;;;;;;;;;;5074952;28;20064;-69
2023/08/02 08:59:01;;;;;;;0.30;0.30;;;;;;;;;;5068472;28;20112;-71
2023/08/02 09:01:27;;;;;;;0.25;0.25;;;;;;;;;;5070420;28;20566;-69
2023/08/02 09:03:52;;;;;;;0.60;0.60;;;;;;;;;;5064345;28;20051;-70
2023/08/02 09:06:19;;;;;;;1.17;0.93;;;;;;;;;;5074464;28;20070;-72
2023/08/02 09:08:47;;;;;;;0.30;0.30;;;;;;;;;;5072617;28;20112;-69
2023/08/02 09:11:13;;;;;;;0.40;0.40;;;;;;;;;;5044988;28;20029;-68
2023/08/02 09:13:38;;;;;;;0.45;0.45;;;;;;;;;;5056246;28;20073;-70
2023/08/02 09:16:03;;;;;;;0.68;0.68;;;;;;;;;;5067017;28;20031;-68
2023/08/02 09:18:39;;;;;;;9.40;2.15;;;;;;;;;;5083758;28;20043;-70
2023/08/02 09:21:05;;;;;;;7.95;0.82;;;;;;;;;;5081287;28;20032;-70
2023/08/02 09:23:30;;;;;;;0.35;0.35;;;;;;;;;;5081053;28;20044;-69
2023/08/02 09:26:16;;;;;;;1.25;0.75;;;;;;;;;;5060816;28;20078;-70
2023/08/02 09:28:57;;;;;;;2.08;1.00;;;;;;;;;;5061644;28;20028;-71
2023/08/02 09:31:23;;;;;;;9.75;3.00;;;;;;;;;;5056602;28;20130;-68
2023/08/02 09:33:52;;;;;;;4.03;1.48;;;;;;;;;;5061914;28;20116;-69
2023/08/02 09:36:36;;;;;;;2.85;1.05;;;;;;;;;;5032078;28;20506;-67
2023/08/02 09:39:14;;;;;;;4.43;1.13;;;;;;;;;;5069468;28;20043;-70
2023/08/02 09:41:40;;;;;;;0.23;0.23;;;;;;;;;;5046065;28;20426;-65
2023/08/02 09:44:06;;;;;;;0.50;0.50;;;;;;;;;;5066252;28;20354;-65
2023/08/02 09:46:35;;;;;;;3.08;1.52;;;;;;;;;;5065638;28;20123;-66
2023/08/02 09:49:21;;;;;;;0.60;0.60;;;;;;;;;;5068196;28;20035;-65
2023/08/02 09:51:46;;;;;;;0.60;0.60;;;;;;;;;;5085466;28;20062;-66
2023/08/02 09:54:12;;;;;;;3.33;0.90;;;;;;;;;;5088406;28;20031;-65
2023/08/02 09:56:38;;;;;;;0.30;0.30;;;;;;;;;;5076633;28;20133;-65
2023/08/02 09:59:04;;;;;;;0.95;0.90;;;;;;;;;;5082856;28;20054;-65
2023/08/02 10:01:30;;;;;;;2.63;1.73;;;;;;;;;;5085676;28;20024;-66
2023/08/02 10:04:04;;;;;;;1.02;0.90;;;;;;;;;;5088258;28;20519;-66
2023/08/02 10:06:47;;;;;;;5.20;2.08;;;;;;;;;;5075196;28;20086;-66
2023/08/02 10:09:17;;;;;;;5.07;1.17;;;;;;;;;;5057349;28;20047;-65
2023/08/02 10:11:54;;;;;;;0.70;0.63;;;;;;;;;;5059762;28;20036;-66
2023/08/02 10:14:19;;;;;;;3.15;0.73;;;;;;;;;;5055756;28;20044;-65
2023/08/02 10:16:45;;;;;;;1.10;0.95;;;;;;;;;;5055685;28;20496;-66
2023/08/02 10:19:11;;;;;;;0.45;0.45;;;;;;;;;;5067235;28;20032;-66
2023/08/02 10:21:37;;;;;;;3.47;1.67;;;;;;;;;;5065674;28;20555;-65
2023/08/02 10:24:03;;;;;;;3.38;1.55;;;;;;;;;;5060854;28;20035;-65
2023/08/02 10:26:30;;;;;;;2.58;1.38;;;;;;;;;;5067418;28;20131;-65
2023/08/02 10:28:59;;;;;;;4.30;1.77;;;;;;;;;;5050181;28;20040;-66
2023/08/02 10:31:25;;;;;;;1.65;0.40;;;;;;;;;;5067679;28;20476;-66
2023/08/02 10:33:51;;;;;;;4.70;2.75;;;;;;;;;;5066909;28;20094;-65
2023/08/02 10:36:16;;;;;;;6.18;2.25;;;;;;;;;;5049467;28;20107;-64
2023/08/02 10:38:42;;;;;;;0.90;0.73;;;;;;;;;;5062755;28;20029;-66
2023/08/02 10:41:14;;;;;;;10.52;2.78;;;;;;;;;;5058920;28;20062;-64
2023/08/02 10:44:00;;;;;;;0.63;0.63;;;;;;;;;;5058706;28;20186;-65
2023/08/02 10:46:29;;;;;;;2.75;0.88;;;;;;;;;;5060685;28;20028;-65
2023/08/02 10:48:54;;;;;;;1.63;1.52;;;;;;;;;;5059525;28;20392;-64
2023/08/02 10:51:38;;;;;;;0.40;0.40;;;;;;;;;;5061862;28;20029;-65
2023/08/02 10:54:19;;;;;;;9.98;1.73;;;;;;;;;;5063365;28;20033;-65
2023/08/02 10:56:51;;;;;;;8.68;2.03;;;;;;;;;;5058873;28;20086;-65
2023/08/02 10:59:17;;;;;;;3.88;1.35;;;;;;;;;;5055068;28;20072;-65
2023/08/02 11:01:56;;;;;;;2.92;1.10;;;;;;;;;;5049947;28;20040;-64
2023/08/02 11:04:22;;;;;;;0.50;0.50;;;;;;;;;;5068486;28;20487;-65
2023/08/02 11:06:47;;;;;;;0.40;0.40;;;;;;;;;;5066211;28;20024;-64
2023/08/02 11:09:13;;;;;;;0.40;0.40;;;;;;;;;;5052940;28;20484;-65
2023/08/02 11:11:38;;;;;;;3.63;1.88;;;;;;;;;;5066417;28;20491;-65
2023/08/02 11:14:04;;;;;;;5.18;1.38;;;;;;;;;;5066979;28;20552;-65
2023/08/02 11:16:30;;;;;;;8.30;1.65;;;;;;;;;;5067380;28;20040;-64
2023/08/02 11:18:56;;;;;;;4.03;1.13;;;;;;;;;;5037910;28;20072;-65
2023/08/02 11:21:21;;;;;;;2.92;1.35;;;;;;;;;;5059625;28;20541;-65
2023/08/02 11:23:49;;;;;;;0.80;0.55;;;;;;;;;;5068634;28;20063;-67
2023/08/02 11:26:21;;;;;;;1.50;0.40;;;;;;;;;;5068719;28;20048;-65
2023/08/02 11:28:52;;;;;;;4.80;1.00;;;;;;;;;;5069238;28;20542;-65
2023/08/02 11:31:18;;;;;;;5.72;1.60;;;;;;;;;;5068653;28;20128;-65
2023/08/02 11:33:43;;;;;;;6.13;2.05;;;;;;;;;;5068535;28;20119;-64
2023/08/02 11:36:09;;;;;;;5.78;1.63;;;;;;;;;;5069119;28;20044;-64
2023/08/02 11:38:38;;;;;;;6.65;1.40;;;;;;;;;;5066798;28;20033;-65
2023/08/02 11:41:15;;;;;;;0.73;0.70;;;;;;;;;;5060068;28;20079;-65
2023/08/02 11:43:42;;;;;;;2.70;1.20;;;;;;;;;;5074535;28;20070;-65
2023/08/02 11:46:14;;;;;;;11.88;2.33;;;;;;;;;;5087684;28;20093;-64
2023/08/02 11:48:40;;;;;;;7.10;1.67;;;;;;;;;;5079189;28;20475;-66
2023/08/02 11:51:06;;;;;;;5.38;1.52;;;;;;;;;;5054908;28;20107;-64
2023/08/02 11:53:32;;;;;;;3.67;1.45;;;;;;;;;;5056875;28;20115;-66
2023/08/02 11:55:57;;;;;;;5.35;1.92;;;;;;;;;;5063886;28;20032;-65
2023/08/02 11:58:23;;;;;;;0.30;0.30;;;;;;;;;;5068177;28;20472;-66
2023/08/02 12:00:49;;;;;;;4.97;4.60;;;;;;;;;;5036634;28;20029;-66
2023/08/02 12:03:15;;;;;;;2.80;1.27;;;;;;;;;;5052881;28;20033;-65
2023/08/02 12:05:41;;;;;;;2.30;0.93;;;;;;;;;;5056150;28;20109;-66
2023/08/02 12:08:17;;;;;;;0.50;0.50;;;;;;;;;;5052824;28;20033;-65
2023/08/02 12:10:43;;;;;;;2.17;0.88;;;;;;;;;;5058214;28;20111;-66
2023/08/02 12:13:14;;;;;;;0.57;0.57;;;;;;;;;;5055292;28;20139;-65
2023/08/02 12:15:40;;;;;;;4.30;1.38;;;;;;;;;;5058406;28;20421;-66
2023/08/02 12:18:06;;;;;;;7.07;1.75;;;;;;;;;;5059691;28;20127;-65
2023/08/02 12:20:32;;;;;;;6.22;1.88;;;;;;;;;;5055837;28;20063;-66
2023/08/02 12:22:58;;;;;;;0.75;0.75;;;;;;;;;;5054810;28;20072;-66
2023/08/02 12:25:23;;;;;;;1.77;1.25;;;;;;;;;;5053143;28;20028;-65
2023/08/02 12:28:04;;;;;;;2.38;1.20;;;;;;;;;;5055104;28;20630;-67
2023/08/02 12:30:30;;;;;;;4.65;1.45;;;;;;;;;;5057612;28;20392;-66
2023/08/02 12:32:56;;;;;;;3.70;1.25;;;;;;;;;;5078026;28;20057;-65
2023/08/02 12:35:21;;;;;;;1.40;0.88;;;;;;;;;;5060791;28;20032;-65
2023/08/02 12:37:47;;;;;;;2.92;1.27;;;;;;;;;;5066449;28;20032;-65
2023/08/02 12:40:12;;;;;;;8.95;2.95;;;;;;;;;;5086138;28;20028;-66
2023/08/02 12:42:38;;;;;;;5.75;1.77;;;;;;;;;;5075535;28;20127;-66
2023/08/02 12:45:04;;;;;;;2.38;1.15;;;;;;;;;;5070578;28;20085;-64
2023/08/02 12:47:29;;;;;;;9.02;2.63;;;;;;;;;;5086238;28;20386;-65
2023/08/02 12:49:57;;;;;;;0.65;0.65;;;;;;;;;;5061466;28;20032;-64
2023/08/02 12:52:22;;;;;;;2.88;0.93;;;;;;;;;;5077006;28;20033;-66
2023/08/02 12:54:48;;;;;;;1.25;0.90;;;;;;;;;;5066640;28;20506;-64
2023/08/02 12:57:13;;;;;;;9.30;1.90;;;;;;;;;;5067141;28;20036;-65
2023/08/02 12:59:39;;;;;;;10.43;2.55;;;;;;;;;;5067356;28;20044;-65
2023/08/02 13:02:04;;;;;;;5.53;1.92;;;;;;;;;;5067593;28;20102;-65
2023/08/02 13:04:30;;;;;;;9.68;2.58;;;;;;;;;;5067447;28;20040;-65
2023/08/02 13:06:57;;;;;;;10.15;2.15;;;;;;;;;;5067351;28;20045;-66
2023/08/02 13:09:23;;;;;;;8.75;1.75;;;;;;;;;;5086020;28;20032;-65
2023/08/02 13:11:49;;;;;;;0.45;0.38;;;;;;;;;;5082592;28;20105;-65
2023/08/02 13:14:14;;;;;;;2.78;0.88;;;;;;;;;;5067160;28;20119;-66
2023/08/02 13:16:40;;;;;;;3.55;1.92;;;;;;;;;;5067317;28;20032;-65
2023/08/02 13:19:06;;;;;;;1.13;1.02;;;;;;;;;;5067312;28;20048;-66
2023/08/02 13:21:31;;;;;;;4.80;1.70;;;;;;;;;;5067644;28;20056;-65
2023/08/02 13:23:56;;;;;;;3.17;0.88;;;;;;;;;;5067319;28;20033;-65
2023/08/02 13:26:22;;;;;;;7.43;1.73;;;;;;;;;;5067391;28;20043;-66
2023/08/02 13:28:47;;;;;;;3.25;0.68;;;;;;;;;;5067387;28;20066;-66
2023/08/02 13:31:13;;;;;;;7.28;1.60;;;;;;;;;;5066981;28;20032;-65
2023/08/02 13:33:41;;;;;;;6.80;2.20;;;;;;;;;;5067461;28;20040;-66
2023/08/02 13:36:07;;;;;;;3.50;1.17;;;;;;;;;;5070098;28;20035;-66
2023/08/02 13:38:33;;;;;;;2.60;1.88;;;;;;;;;;5068630;28;20043;-67
2023/08/02 13:40:58;;;;;;;5.72;1.63;;;;;;;;;;5066302;28;20431;-66
2023/08/02 13:43:25;;;;;;;5.68;1.65;;;;;;;;;;5062239;28;20076;-65
2023/08/02 13:45:50;;;;;;;0.95;0.93;;;;;;;;;;5048368;28;20490;-66
2023/08/02 13:48:16;;;;;;;1.10;0.52;;;;;;;;;;5048104;28;20025;-65
2023/08/02 13:50:41;;;;;;;6.53;1.17;;;;;;;;;;5077309;28;20119;-66
2023/08/02 13:53:07;;;;;;;3.17;2.55;;;;;;;;;;5045476;28;20055;-65
2023/08/02 13:55:33;;;;;;;0.55;0.55;;;;;;;;;;5068144;28;20123;-73
2023/08/02 13:57:58;;;;;;;1.33;0.98;;;;;;;;;;5068768;28;20380;-71
2023/08/02 14:00:24;;;;;;;1.17;0.82;;;;;;;;;;5068429;28;20085;-72
2023/08/02 14:02:49;;;;;;;4.57;1.90;;;;;;;;;;5067447;28;20040;-71
2023/08/02 14:05:15;;;;;;;7.30;1.20;;;;;;;;;;5067967;28;20044;-71
2023/08/02 14:07:40;;;;;;;2.95;1.67;;;;;;;;;;5068054;28;20028;-71
2023/08/02 14:10:06;;;;;;;3.65;1.63;;;;;;;;;;5068182;28;20063;-72
2023/08/02 14:12:32;;;;;;;4.78;1.38;;;;;;;;;;5067226;28;20094;-70
2023/08/02 14:14:57;;;;;;;0.30;0.30;;;;;;;;;;5067617;28;20033;-72
2023/08/02 14:17:23;;;;;;;0.43;0.43;;;;;;;;;;5066452;28;20456;-71
2023/08/02 14:19:48;;;;;;;2.80;1.27;;;;;;;;;;5067803;28;20111;-72
2023/08/02 14:22:14;;;;;;;0.50;0.50;;;;;;;;;;5068063;28;20049;-72
2023/08/02 14:24:40;;;;;;;0.90;0.63;;;;;;;;;;5067637;28;20048;-71
2023/08/02 14:27:07;;;;;;;4.85;1.88;;;;;;;;;;5067127;28;20039;-72
2023/08/02 14:29:33;;;;;;;13.57;3.10;;;;;;;;;;5064778;28;20264;-70
2023/08/02 14:31:59;;;;;;;0.40;0.40;;;;;;;;;;5056223;28;20032;-72
2023/08/02 14:34:25;;;;;;;5.18;2.00;;;;;;;;;;5078683;28;20093;-71
2023/08/02 14:36:51;;;;;;;2.38;0.77;;;;;;;;;;5079324;28;20025;-71
2023/08/02 14:39:17;;;;;;;6.03;1.42;;;;;;;;;;5067103;28;20482;-71